Terminal Aerodrome Forecast
Issued by NWS Duluth, MN

Home | Current Version | Previous Version | Text Only | Print | Product List | Glossary On
Versions: 1 2 3 4 5 6 7 8 9 10 11 12 13 14 15 16 17 18 19 20 21 22 23 24 25 26 27 28 29
000
FTUS43 KDLH 250100 AAA
TAFDLH
TAF AMD
KDLH 250152Z 2502/2524 28006KT 6SM -SN BR BKN005 OVC040
      TEMPO 2502/2504 2SM -SN BR OVC010
     FM250500 25004KT 6SM -SN BR OVC006
      TEMPO 2507/2511 2SM -SN BR
     FM251300 24006KT 5SM -FZDZ BR OVC009
     FM251700 25007KT P6SM OVC014=

USA.gov is the U.S. government's official web portal to all federal, state and local government web resources and services.